Accueil
METAR-TAF:

METAR-TAF

Aéroports :

Emmen, Suisse

latitude: 47-05-32N, longitude: 8-18-16E, altitude: 426 m

Observation

Le bulletin a été fait il y a 48 minutes, à 09:50 UTC
Vent 13 kt de nord/nord-est
Température -2°C
Humidité 86%
Pression 1010 hPa
Visibilité: 5000 m
Nuages fragmentés à une hauteur de 1700 ft
Ciel couvert à une hauteur de 4200 ft
neige faible

METAR: LSME 220950Z 02013KT 5000 -SN BKN017 OVC042 M02/M04 Q1010 RMK WHT

Heure: 11:38 (10:38 UTC)


TAF: absent

Observations et prévisions météorologiques de plus de 4000 aéroports (messages METAR et TAF).

Les stations disponibles sont représentées par des disques jaunes et rouges sur la carte.

Passer la souris dessus pour voir le nom de la station.

Cliquer dessus pour voir les observations et prévisions météorologiques.

Pour changer de carte: cliquez sur les boutons verts avec une croix noire pour zoomer, sur le bouton vert avec un tiret pour effectuer un zoom arrière, ou sur les flèches vertes pour les cartes adjacentes.


METAR-TAF: